createdAt,value
2019-05-02T00:01:18.707Z,8.34
2019-05-02T00:03:47.227Z,8.32
2019-05-02T00:06:16.182Z,8.21
2019-05-02T00:08:44.851Z,8.15
2019-05-02T00:11:13.899Z,8.06
2019-05-02T00:13:42.439Z,8.06
2019-05-02T00:16:14.122Z,7.96
2019-05-02T00:18:41.138Z,7.92
2019-05-02T00:21:09.886Z,7.87
2019-05-02T00:23:38.425Z,7.86
2019-05-02T00:26:06.958Z,7.83
2019-05-02T00:28:35.456Z,7.92
2019-05-02T00:31:07.453Z,7.90
2019-05-02T00:33:35.867Z,7.65
2019-05-02T00:36:04.741Z,7.65
2019-05-02T00:38:37.889Z,7.58
2019-05-02T00:41:03.746Z,7.42
2019-05-02T00:43:34.467Z,7.42
2019-05-02T00:46:02.322Z,7.43
2019-05-02T00:48:37.845Z,7.49
2019-05-02T00:51:06.295Z,7.52
2019-05-02T00:53:34.693Z,7.57
2019-05-02T00:56:05.157Z,7.47
2019-05-02T00:58:33.195Z,7.43
2019-05-02T01:01:11.687Z,7.46
2019-05-02T01:03:41.802Z,7.43
2019-05-02T01:06:14.376Z,7.40
2019-05-02T01:08:40.445Z,7.37
2019-05-02T01:11:09.285Z,7.41
2019-05-02T01:13:37.696Z,7.27
2019-05-02T01:16:06.172Z,6.64
2019-05-02T01:18:37.300Z,7.21
2019-05-02T01:21:04.699Z,7.16
2019-05-02T01:23:33.120Z,7.11
2019-05-02T01:26:01.511Z,7.11
2019-05-02T01:28:54.213Z,7.13
2019-05-02T01:31:23.943Z,7.21
2019-05-02T01:33:53.994Z,7.15
2019-05-02T01:36:29.500Z,7.09
2019-05-02T01:38:57.892Z,7.12
2019-05-02T01:41:29.114Z,7.12
2019-05-02T01:44:00.050Z,7.17
2019-05-02T01:46:26.527Z,7.04
2019-05-02T01:48:54.920Z,6.98
2019-05-02T01:51:23.437Z,6.93
2019-05-02T01:53:51.865Z,6.94
2019-05-02T01:56:20.249Z,6.92
2019-05-02T01:58:48.633Z,6.91
2019-05-02T02:01:21.399Z,6.91
2019-05-02T02:03:49.112Z,6.96
2019-05-02T02:06:17.538Z,6.87
2019-05-02T02:08:45.913Z,6.78
2019-05-02T02:11:14.453Z,6.80
2019-05-02T02:13:42.838Z,6.76
2019-05-02T02:16:11.221Z,6.74
2019-05-02T02:18:41.529Z,6.70
2019-05-02T02:21:25.464Z,6.73
2019-05-02T02:23:54.427Z,6.70
2019-05-02T02:26:24.180Z,6.70
2019-05-02T02:28:52.621Z,6.69
2019-05-02T02:31:21.964Z,6.59
2019-05-02T02:33:50.630Z,6.46
2019-05-02T02:36:30.021Z,6.38
2019-05-02T02:38:49.283Z,6.31
2019-05-02T02:41:17.657Z,6.31
2019-05-02T02:43:47.701Z,6.27
2019-05-02T02:46:20.482Z,6.27
2019-05-02T02:48:48.884Z,6.29
2019-05-02T02:51:23.816Z,6.30
2019-05-02T02:53:47.495Z,6.23
2019-05-02T02:56:15.944Z,6.14
2019-05-02T02:58:46.053Z,6.16
2019-05-02T03:01:14.410Z,6.27
2019-05-02T03:03:42.882Z,6.31
2019-05-02T03:06:11.315Z,6.29
2019-05-02T03:08:46.078Z,6.16
2019-05-02T03:11:22.298Z,6.05
2019-05-02T03:13:53.116Z,5.96
2019-05-02T03:16:24.258Z,5.91
2019-05-02T03:18:52.825Z,5.87
2019-05-02T03:21:22.501Z,5.98
2019-05-02T03:24:01.588Z,5.99
2019-05-02T03:28:35.055Z,6.11
2019-05-02T03:31:21.741Z,5.97
2019-05-02T03:33:51.607Z,5.91
2019-05-02T03:36:04.420Z,5.89
2019-05-02T03:38:35.265Z,5.82
2019-05-02T03:41:03.248Z,5.82
2019-05-02T03:43:31.915Z,5.74
2019-05-02T03:46:00.633Z,5.73
2019-05-02T03:48:29.010Z,5.77
2019-05-02T03:50:57.481Z,5.84
2019-05-02T03:53:27.700Z,5.97
2019-05-02T03:55:56.720Z,6.07
2019-05-02T03:58:25.409Z,6.15
2019-05-02T04:01:00.429Z,6.25
2019-05-02T04:03:25.245Z,6.27
2019-05-02T04:05:53.731Z,6.31
2019-05-02T04:08:22.702Z,6.35
2019-05-02T04:10:59.395Z,6.39
2019-05-02T04:13:30.149Z,6.40
2019-05-02T04:15:58.706Z,5.95
2019-05-02T04:18:27.247Z,6.19
2019-05-02T04:20:55.700Z,6.25
2019-05-02T04:23:27.741Z,6.33
2019-05-02T04:25:55.811Z,6.37
2019-05-02T04:28:25.135Z,6.41
2019-05-02T04:30:54.047Z,6.53
2019-05-02T04:33:22.574Z,6.59
2019-05-02T04:35:51.117Z,6.62
2019-05-02T04:38:24.501Z,6.67
2019-05-02T04:40:49.779Z,6.72
2019-05-02T04:43:18.511Z,6.83
2019-05-02T04:45:55.828Z,6.93
2019-05-02T04:48:18.402Z,7.02
2019-05-02T04:50:48.264Z,7.08
2019-05-02T04:53:18.857Z,7.17
2019-05-02T04:55:52.044Z,7.30
2019-05-02T04:58:27.637Z,7.19
2019-05-02T05:00:53.603Z,7.22
2019-05-02T05:03:21.129Z,7.32
2019-05-02T05:05:48.368Z,7.49
2019-05-02T05:08:26.053Z,7.41
2019-05-02T05:10:47.991Z,7.38
2019-05-02T05:13:21.595Z,7.54
2019-05-02T05:15:51.292Z,7.59
2019-05-02T05:18:17.700Z,7.61
2019-05-02T05:20:53.074Z,7.62
2019-05-02T05:23:21.313Z,7.61
2019-05-02T05:25:50.628Z,7.60
2019-05-02T05:28:20.087Z,7.70
2019-05-02T05:30:51.935Z,7.90
2019-05-02T05:33:18.674Z,8.01
2019-05-02T05:35:48.767Z,8.13
2019-05-02T05:38:18.182Z,8.33
2019-05-02T05:40:47.860Z,8.56
2019-05-02T05:43:20.333Z,8.83
2019-05-02T05:45:53.565Z,9.02
2019-05-02T05:48:18.406Z,9.20
2019-05-02T05:50:47.757Z,9.43
2019-05-02T05:53:17.380Z,9.58
2019-05-02T05:55:47.356Z,9.37
2019-05-02T05:58:18.524Z,9.36
2019-05-02T06:00:53.620Z,9.51
2019-05-02T06:03:17.895Z,9.52
2019-05-02T06:05:47.737Z,9.68
2019-05-02T06:08:18.425Z,9.68
2019-05-02T06:10:46.297Z,9.86
2019-05-02T06:13:14.691Z,10.08
2019-05-02T06:15:45.837Z,10.13
2019-05-02T06:18:13.232Z,10.14
2019-05-02T06:20:41.733Z,10.36
2019-05-02T06:23:10.150Z,10.58
2019-05-02T06:25:42.215Z,10.72
2019-05-02T06:28:09.058Z,10.87
2019-05-02T06:30:37.458Z,11.00
2019-05-02T06:33:05.947Z,11.27
2019-05-02T06:35:34.426Z,11.27
2019-05-02T06:38:02.836Z,11.42
2019-05-02T06:40:31.267Z,11.55
2019-05-02T06:43:04.319Z,11.78
2019-05-02T06:45:40.425Z,11.90
2019-05-02T06:48:17.189Z,12.02
2019-05-02T06:50:40.560Z,12.12
2019-05-02T06:53:11.057Z,12.46
2019-05-02T06:55:39.582Z,13.01
2019-05-02T06:58:08.348Z,13.49
2019-05-02T07:00:51.678Z,13.96
2019-05-02T07:03:10.235Z,14.43
2019-05-02T07:05:37.541Z,14.96
2019-05-02T07:08:11.196Z,15.12
2019-05-02T07:10:44.437Z,15.52
2019-05-02T07:13:10.819Z,15.66
2019-05-02T07:15:40.357Z,15.20
2019-05-02T07:18:12.100Z,15.04
2019-05-02T07:20:42.345Z,15.12
2019-05-02T07:23:15.875Z,15.45
2019-05-02T07:25:43.864Z,15.58
2019-05-02T07:28:10.960Z,15.31
2019-05-02T07:30:39.907Z,15.08
2019-05-02T07:33:08.318Z,14.89
2019-05-02T07:35:36.768Z,15.00
2019-05-02T07:38:05.174Z,15.13
2019-05-02T07:40:33.625Z,15.36
2019-05-02T07:43:02.512Z,15.58
2019-05-02T07:45:31.040Z,15.93
2019-05-02T07:48:01.433Z,16.23
2019-05-02T07:50:29.759Z,15.97
2019-05-02T07:52:58.235Z,15.89
2019-05-02T07:55:26.851Z,15.86
2019-05-02T07:57:55.263Z,15.50
2019-05-02T08:00:24.146Z,15.30
2019-05-02T08:02:52.709Z,15.09
2019-05-02T08:05:23.655Z,14.97
2019-05-02T08:07:53.340Z,14.90
2019-05-02T08:10:24.043Z,14.89
2019-05-02T08:12:52.459Z,15.10
2019-05-02T08:15:20.899Z,15.31
2019-05-02T08:17:53.803Z,15.48
2019-05-02T08:20:21.229Z,15.73
2019-05-02T08:22:50.419Z,15.89
2019-05-02T08:25:19.502Z,16.01
2019-05-02T08:27:52.340Z,16.15
2019-05-02T08:30:22.915Z,16.41
2019-05-02T08:32:51.457Z,16.43
2019-05-02T08:35:19.998Z,16.35
2019-05-02T08:37:48.422Z,16.34
2019-05-02T08:40:16.976Z,16.54
2019-05-02T08:42:45.531Z,16.94
2019-05-02T08:45:14.273Z,17.19
2019-05-02T08:47:42.844Z,17.88
2019-05-02T08:50:11.605Z,18.71
2019-05-02T08:52:42.300Z,19.36
2019-05-02T08:55:11.056Z,19.52
2019-05-02T08:57:39.595Z,20.01
2019-05-02T09:00:10.547Z,20.38
2019-05-02T09:02:41.620Z,20.17
2019-05-02T09:05:09.396Z,20.67
2019-05-02T09:07:39.368Z,21.38
2019-05-02T09:10:08.761Z,21.74
2019-05-02T09:12:43.679Z,20.98
2019-05-02T09:15:07.838Z,20.78
2019-05-02T09:17:38.855Z,21.19
2019-05-02T09:20:15.103Z,21.86
2019-05-02T09:22:38.221Z,22.21
2019-05-02T09:25:09.773Z,22.45
2019-05-02T09:27:38.210Z,22.60
2019-05-02T09:30:17.057Z,22.44
2019-05-02T09:32:43.338Z,22.42
2019-05-02T09:35:12.905Z,22.69
2019-05-02T09:37:42.042Z,22.14
2019-05-02T09:40:16.347Z,22.05
2019-05-02T09:42:42.952Z,22.26
2019-05-02T09:45:16.551Z,22.68
2019-05-02T09:47:56.271Z,22.83
2019-05-02T09:50:20.493Z,22.36
2019-05-02T09:52:47.412Z,21.79
2019-05-02T09:55:17.268Z,21.38
2019-05-02T09:57:47.254Z,21.14
2019-05-02T10:00:32.231Z,21.40
2019-05-02T10:02:59.132Z,21.32
2019-05-02T10:05:27.559Z,21.28
2019-05-02T10:07:57.538Z,21.30
2019-05-02T10:10:27.026Z,22.23
2019-05-02T10:12:55.443Z,23.20
2019-05-02T10:15:24.010Z,23.69
2019-05-02T10:17:52.501Z,24.16
2019-05-02T10:20:23.603Z,24.45
2019-05-02T10:22:52.949Z,24.32
2019-05-02T10:25:23.179Z,24.29
2019-05-02T10:27:52.328Z,24.08
2019-05-02T10:30:23.135Z,24.52
2019-05-02T10:32:56.009Z,24.18
2019-05-02T10:35:28.182Z,24.22
2019-05-02T10:37:53.543Z,24.57
2019-05-02T10:40:22.563Z,24.93
2019-05-02T10:42:52.249Z,25.24
2019-05-02T10:45:22.509Z,24.84
2019-05-02T10:47:52.686Z,25.30
2019-05-02T10:50:23.008Z,25.96
2019-05-02T10:52:52.712Z,26.32
2019-05-02T10:55:23.661Z,26.03
2019-05-02T10:57:52.676Z,26.43
2019-05-02T11:00:24.696Z,25.39
2019-05-02T11:03:11.957Z,24.53
2019-05-02T11:05:42.055Z,23.96
2019-05-02T11:08:11.989Z,23.76
2019-05-02T11:10:42.258Z,23.87
2019-05-02T11:13:18.204Z,23.94
2019-05-02T11:16:05.934Z,23.62
2019-05-02T11:18:54.439Z,23.81
2019-05-02T11:21:23.060Z,23.87
2019-05-02T11:23:52.619Z,24.52
2019-05-02T11:26:24.886Z,24.97
2019-05-02T11:28:52.107Z,23.64
2019-05-02T11:31:21.883Z,23.54
2019-05-02T11:33:52.726Z,23.48
2019-05-02T11:36:22.303Z,23.62
2019-05-02T11:39:00.399Z,23.77
2019-05-02T11:41:22.440Z,24.07
2019-05-02T11:43:54.140Z,23.57
2019-05-02T11:46:22.077Z,23.74
2019-05-02T11:48:56.295Z,24.55
2019-05-02T11:51:22.657Z,24.03
2019-05-02T11:53:52.618Z,23.38
2019-05-02T11:56:22.297Z,23.56
2019-05-02T11:58:52.630Z,23.77
2019-05-02T12:01:34.967Z,24.54
2019-05-02T12:03:52.580Z,24.89
2019-05-02T12:06:22.509Z,24.51
2019-05-02T12:08:52.641Z,24.12
2019-05-02T12:11:22.811Z,23.77
2019-05-02T12:13:52.903Z,23.72
2019-05-02T12:16:22.962Z,23.24
2019-05-02T12:18:53.583Z,23.28
2019-05-02T12:21:22.868Z,23.76
2019-05-02T12:23:52.752Z,24.15
2019-05-02T12:26:22.062Z,24.56
2019-05-02T12:28:52.678Z,24.11
2019-05-02T12:31:26.969Z,23.95
2019-05-02T12:33:56.482Z,24.44
2019-05-02T12:36:24.880Z,24.28
2019-05-02T12:38:53.427Z,23.83
2019-05-02T12:41:24.988Z,23.98
2019-05-02T12:43:52.499Z,24.22
2019-05-02T12:46:22.211Z,24.56
2019-05-02T12:48:51.989Z,24.73
2019-05-02T12:51:22.584Z,24.37
2019-05-02T12:53:52.862Z,23.07
2019-05-02T12:56:22.874Z,22.63
2019-05-02T12:58:52.991Z,22.39
2019-05-02T13:01:21.953Z,22.24
2019-05-02T13:03:52.314Z,22.67
2019-05-02T13:06:22.002Z,23.36
2019-05-02T13:08:52.529Z,23.45
2019-05-02T13:11:25.377Z,22.93
2019-05-02T13:13:53.874Z,22.64
2019-05-02T13:16:22.712Z,22.86
2019-05-02T13:18:57.150Z,22.89
2019-05-02T13:21:41.469Z,23.09
2019-05-02T13:24:07.444Z,23.22
2019-05-02T13:26:34.930Z,23.08
2019-05-02T13:29:03.446Z,22.29
2019-05-02T13:31:36.238Z,22.09
2019-05-02T13:34:15.866Z,21.77
2019-05-02T13:36:47.552Z,21.55
2019-05-02T13:39:34.685Z,21.86
2019-05-02T13:42:03.235Z,22.19
2019-05-02T13:44:35.723Z,22.39
2019-05-02T13:47:06.644Z,22.38
2019-05-02T13:49:35.148Z,22.40
2019-05-02T13:52:03.629Z,22.38
2019-05-02T13:54:33.168Z,22.74
2019-05-02T13:57:07.889Z,23.12
2019-05-02T13:59:33.619Z,23.41
2019-05-02T14:02:02.943Z,23.76
2019-05-02T14:04:32.659Z,23.88
2019-05-02T14:07:03.034Z,23.78
2019-05-02T14:09:35.518Z,23.12
2019-05-02T14:12:22.483Z,22.63
2019-05-02T14:14:51.896Z,22.32
2019-05-02T14:17:20.421Z,22.10
2019-05-02T14:19:48.922Z,22.02
2019-05-02T14:22:17.364Z,22.19
2019-05-02T14:24:45.872Z,22.70
2019-05-02T14:27:17.163Z,22.64
2019-05-02T14:29:44.700Z,22.92
2019-05-02T14:32:21.314Z,22.71
2019-05-02T14:34:47.464Z,22.90
2019-05-02T14:37:15.946Z,22.82
2019-05-02T14:39:46.236Z,22.79
2019-05-02T14:42:21.318Z,22.83
2019-05-02T14:45:04.303Z,22.89
2019-05-02T14:47:19.421Z,23.09
2019-05-02T14:49:45.256Z,23.29
2019-05-02T14:52:13.742Z,23.52
2019-05-02T14:54:46.478Z,23.67
2019-05-02T14:57:17.254Z,23.19
2019-05-02T14:59:50.293Z,22.63
2019-05-02T15:02:19.138Z,22.35
2019-05-02T15:04:48.980Z,22.34
2019-05-02T15:07:21.755Z,21.93
2019-05-02T15:09:47.599Z,22.03
2019-05-02T15:12:18.999Z,22.31
2019-05-02T15:14:49.264Z,22.39
2019-05-02T15:17:16.471Z,22.44
2019-05-02T15:19:44.906Z,22.38
2019-05-02T15:22:13.354Z,22.18
2019-05-02T15:24:42.400Z,21.73
2019-05-02T15:27:13.327Z,21.54
2019-05-02T15:29:41.972Z,21.36
2019-05-02T15:32:27.665Z,21.35
2019-05-02T15:35:17.730Z,21.39
2019-05-02T15:37:45.947Z,21.21
2019-05-02T15:42:52.242Z,20.94
2019-05-02T15:45:23.770Z,20.88
2019-05-02T15:47:52.594Z,20.79
2019-05-02T15:50:24.418Z,20.79
2019-05-02T15:52:57.325Z,20.82
2019-05-02T15:55:23.173Z,20.80
2019-05-02T15:57:53.648Z,20.68
2019-05-02T16:00:26.792Z,20.56
2019-05-02T16:02:56.225Z,20.27
2019-05-02T16:05:25.352Z,20.13
2019-05-02T16:08:05.348Z,20.01
2019-05-02T16:10:24.088Z,19.90
2019-05-02T16:12:53.601Z,19.83
2019-05-02T16:15:26.302Z,19.72
2019-05-02T16:17:56.766Z,19.61
2019-05-02T16:20:27.392Z,19.54
2019-05-02T16:22:55.876Z,19.52
2019-05-02T16:25:25.952Z,19.47
2019-05-02T16:27:57.451Z,19.18
2019-05-02T16:30:25.034Z,18.43
2019-05-02T16:32:55.287Z,17.46
2019-05-02T16:35:28.345Z,16.39
2019-05-02T16:37:56.837Z,15.43
2019-05-02T16:40:29.774Z,14.84
2019-05-02T16:42:56.327Z,13.85
2019-05-02T16:45:25.119Z,13.37
2019-05-02T16:47:58.693Z,13.30
2019-05-02T16:50:27.490Z,13.29
2019-05-02T16:52:54.215Z,13.27
2019-05-02T16:55:26.493Z,13.00
2019-05-02T16:57:56.708Z,13.22
2019-05-02T17:00:25.556Z,13.21
2019-05-02T17:02:54.141Z,13.24
2019-05-02T17:05:22.623Z,13.29
2019-05-02T17:08:10.574Z,13.32
2019-05-02T17:10:42.221Z,13.35
2019-05-02T17:13:12.511Z,13.35
2019-05-02T17:15:42.759Z,13.40
2019-05-02T17:18:17.208Z,13.36
2019-05-02T17:20:41.672Z,13.36
2019-05-02T17:23:10.088Z,13.32
2019-05-02T17:25:38.582Z,13.30
2019-05-02T17:28:10.537Z,13.24
2019-05-02T17:30:38.815Z,13.24
2019-05-02T17:33:14.338Z,13.22
2019-05-02T17:35:43.390Z,13.32
2019-05-02T17:38:08.146Z,13.29
2019-05-02T17:40:36.643Z,13.37
2019-05-02T17:43:07.039Z,13.37
2019-05-02T17:45:38.556Z,13.23
2019-05-02T17:48:10.413Z,13.33
2019-05-02T17:50:59.223Z,13.40
2019-05-02T17:53:26.241Z,13.51
2019-05-02T17:55:54.841Z,13.52
2019-05-02T17:58:23.235Z,13.37
2019-05-02T18:00:56.180Z,13.65
2019-05-02T18:03:30.721Z,13.62
2019-05-02T18:05:53.680Z,13.45
2019-05-02T18:08:22.175Z,13.49
2019-05-02T18:10:56.094Z,13.48
2019-05-02T18:13:22.686Z,13.38
2019-05-02T18:15:53.247Z,13.32
2019-05-02T18:18:22.146Z,13.29
2019-05-02T18:20:52.720Z,13.29
2019-05-02T18:23:25.743Z,13.23
2019-05-02T18:25:52.562Z,13.24
2019-05-02T18:28:25.913Z,13.14
2019-05-02T18:30:52.465Z,13.08
2019-05-02T18:33:22.651Z,13.03
2019-05-02T18:35:52.612Z,12.98
2019-05-02T18:38:22.271Z,12.96
2019-05-02T18:40:52.418Z,12.92
2019-05-02T18:43:22.258Z,12.91
2019-05-02T18:45:51.555Z,12.86
2019-05-02T18:48:21.865Z,12.80
2019-05-02T18:50:52.434Z,12.76
2019-05-02T18:53:25.702Z,12.71
2019-05-02T18:55:51.877Z,12.65
2019-05-02T18:58:22.403Z,12.65
2019-05-02T19:00:52.004Z,12.67
2019-05-02T19:03:20.687Z,12.61
2019-05-02T19:05:51.484Z,12.62
2019-05-02T19:08:29.070Z,12.57
2019-05-02T19:11:02.491Z,12.57
2019-05-02T19:13:19.872Z,12.51
2019-05-02T19:15:49.017Z,12.48
2019-05-02T19:18:18.416Z,12.42
2019-05-02T19:20:57.457Z,12.37
2019-05-02T19:23:24.433Z,12.31
2019-05-02T19:25:52.988Z,12.35
2019-05-02T19:28:23.286Z,12.36
2019-05-02T19:30:52.098Z,12.34
2019-05-02T19:33:21.583Z,12.36
2019-05-02T19:35:52.574Z,12.36
2019-05-02T19:38:22.564Z,12.32
2019-05-02T19:40:52.040Z,12.34
2019-05-02T19:43:22.919Z,12.33
2019-05-02T19:45:53.921Z,12.31
2019-05-02T19:48:33.019Z,12.34
2019-05-02T19:51:02.378Z,12.27
2019-05-02T19:53:32.272Z,12.32
2019-05-02T19:56:03.068Z,12.27
2019-05-02T19:58:36.765Z,12.24
2019-05-02T20:03:34.909Z,12.13
2019-05-02T20:06:06.056Z,12.04
2019-05-02T20:08:33.844Z,12.01
2019-05-02T20:11:02.418Z,12.03
2019-05-02T20:13:32.717Z,12.07
2019-05-02T20:16:06.058Z,12.04
2019-05-02T20:18:42.542Z,12.01
2019-05-02T20:21:12.107Z,12.01
2019-05-02T20:23:39.727Z,12.01
2019-05-02T20:26:09.500Z,12.02
2019-05-02T20:28:38.495Z,12.07
2019-05-02T20:31:06.981Z,11.98
2019-05-02T20:33:35.388Z,11.95
2019-05-02T20:36:04.088Z,11.89
2019-05-02T20:38:32.615Z,11.84
2019-05-02T20:41:02.765Z,11.80
2019-05-02T20:43:32.300Z,11.78
2019-05-02T20:46:02.600Z,11.73
2019-05-02T20:48:32.263Z,11.72
2019-05-02T20:51:02.658Z,11.76
2019-05-02T20:53:34.120Z,11.73
2019-05-02T20:56:01.923Z,11.75
2019-05-02T20:58:32.496Z,11.72
2019-05-02T21:01:06.240Z,11.68
2019-05-02T21:03:32.029Z,11.68
2019-05-02T21:06:08.161Z,11.64
2019-05-02T21:08:54.473Z,11.63
2019-05-02T21:11:24.428Z,11.61
2019-05-02T21:13:52.954Z,11.60
2019-05-02T21:16:21.885Z,11.60
2019-05-02T21:18:50.335Z,11.60
2019-05-02T21:21:21.976Z,11.62
2019-05-02T21:23:52.806Z,11.65
2019-05-02T21:26:22.019Z,11.64
2019-05-02T21:28:52.188Z,11.67
2019-05-02T21:31:22.391Z,11.58
2019-05-02T21:33:51.976Z,11.58
2019-05-02T21:36:22.517Z,11.58
2019-05-02T21:38:52.153Z,11.60
2019-05-02T21:41:22.244Z,11.56
2019-05-02T21:43:51.878Z,11.53
2019-05-02T21:46:22.185Z,11.48
2019-05-02T21:48:52.463Z,11.50
2019-05-02T21:51:34.431Z,11.50
2019-05-02T21:54:22.705Z,11.51
2019-05-02T21:56:55.910Z,11.48
2019-05-02T21:59:24.456Z,11.45
2019-05-02T22:01:55.096Z,11.41
2019-05-02T22:04:23.661Z,11.46
2019-05-02T22:06:52.473Z,11.47
2019-05-02T22:09:23.079Z,11.45
2019-05-02T22:11:52.225Z,11.37
2019-05-02T22:14:22.323Z,11.36
2019-05-02T22:16:53.016Z,11.37
2019-05-02T22:19:21.205Z,11.41
2019-05-02T22:21:49.842Z,11.43
2019-05-02T22:24:18.469Z,11.39
2019-05-02T22:26:46.965Z,11.45
2019-05-02T22:29:15.375Z,11.46
2019-05-02T22:31:43.807Z,11.48
2019-05-02T22:34:12.962Z,11.45
2019-05-02T22:36:42.098Z,11.46
2019-05-02T22:39:22.237Z,11.45
2019-05-02T22:41:52.469Z,11.43
2019-05-02T22:44:21.846Z,11.35
2019-05-02T22:46:52.065Z,11.42
2019-05-02T22:49:22.479Z,11.40
2019-05-02T22:51:51.012Z,11.37
2019-05-02T22:54:27.636Z,11.42
2019-05-02T22:56:49.570Z,11.50
2019-05-02T22:59:17.978Z,11.50
2019-05-02T23:01:46.448Z,11.53
2019-05-02T23:04:14.958Z,11.49
2019-05-02T23:06:44.293Z,11.52
2019-05-02T23:09:13.032Z,11.54
2019-05-02T23:11:42.565Z,11.51
2019-05-02T23:14:11.316Z,11.52
2019-05-02T23:16:42.319Z,11.52
2019-05-02T23:19:12.035Z,11.51
2019-05-02T23:21:41.942Z,11.49
2019-05-02T23:24:14.475Z,11.50
2019-05-02T23:26:43.848Z,11.50
2019-05-02T23:29:13.985Z,11.48
2019-05-02T23:31:42.471Z,11.53
2019-05-02T23:34:11.016Z,11.54
2019-05-02T23:36:41.480Z,11.56
2019-05-02T23:39:12.301Z,11.59
2019-05-02T23:41:42.036Z,11.55
2019-05-02T23:44:12.288Z,11.52
2019-05-02T23:46:42.409Z,11.50
2019-05-02T23:49:12.821Z,11.51
2019-05-02T23:51:42.760Z,11.47
2019-05-02T23:54:12.849Z,11.49
2019-05-02T23:56:43.139Z,11.47
2019-05-02T23:59:12.036Z,11.46
